sensor_id;sensor_type;location;lat;lon;timestamp;pressure;altitude;pressure_sealevel;temperature;humidity
6224;BME280;3145;42.726;23.342;2023-03-21T00:02:03;72405.78;;;-142.70;45.37
6224;BME280;3145;42.726;23.342;2023-03-21T00:04:31;72411.81;;;-142.70;45.08
6224;BME280;3145;42.726;23.342;2023-03-21T00:06:58;72407.81;;;-142.70;45.14
6224;BME280;3145;42.726;23.342;2023-03-21T00:09:24;72397.72;;;-142.70;45.13
6224;BME280;3145;42.726;23.342;2023-03-21T00:11:51;72407.81;;;-142.70;45.30
6224;BME280;3145;42.726;23.342;2023-03-21T00:14:18;72407.81;;;-142.70;45.34
6224;BME280;3145;42.726;23.342;2023-03-21T00:16:45;72405.78;;;-142.70;45.38
6224;BME280;3145;42.726;23.342;2023-03-21T00:19:15;72407.81;;;-142.70;45.63
6224;BME280;3145;42.726;23.342;2023-03-21T00:21:43;72411.81;;;-142.70;45.91
6224;BME280;3145;42.726;23.342;2023-03-21T00:24:11;72415.84;;;-142.70;45.73
6224;BME280;3145;42.726;23.342;2023-03-21T00:26:38;72421.91;;;-142.70;45.60
6224;BME280;3145;42.726;23.342;2023-03-21T00:29:05;72415.84;;;-142.70;45.63
6224;BME280;3145;42.726;23.342;2023-03-21T00:31:32;72425.94;;;-142.70;45.36
6224;BME280;3145;42.726;23.342;2023-03-21T00:33:59;72427.94;;;-142.70;45.53
6224;BME280;3145;42.726;23.342;2023-03-21T00:36:26;72427.94;;;-142.70;45.55
6224;BME280;3145;42.726;23.342;2023-03-21T00:38:54;72442.03;;;-142.70;45.50
6224;BME280;3145;42.726;23.342;2023-03-21T00:41:21;72442.03;;;-142.70;45.70
6224;BME280;3145;42.726;23.342;2023-03-21T00:43:48;72448.09;;;-142.70;45.53
6224;BME280;3145;42.726;23.342;2023-03-21T00:46:16;72438.00;;;-142.70;45.76
6224;BME280;3145;42.726;23.342;2023-03-21T00:48:43;72448.09;;;-142.70;45.69
6224;BME280;3145;42.726;23.342;2023-03-21T00:51:11;72456.16;;;-142.70;45.68
6224;BME280;3145;42.726;23.342;2023-03-21T00:53:39;72454.13;;;-142.70;46.22
6224;BME280;3145;42.726;23.342;2023-03-21T00:56:08;72468.22;;;-142.70;46.21
6224;BME280;3145;42.726;23.342;2023-03-21T00:58:35;72472.25;;;-142.70;46.52
6224;BME280;3145;42.726;23.342;2023-03-21T01:01:02;72480.31;;;-142.70;46.71
6224;BME280;3145;42.726;23.342;2023-03-21T01:03:32;72488.38;;;-142.70;46.72
6224;BME280;3145;42.726;23.342;2023-03-21T01:06:08;72492.41;;;-142.70;46.94
6224;BME280;3145;42.726;23.342;2023-03-21T01:08:39;72498.44;;;-142.70;47.09
6224;BME280;3145;42.726;23.342;2023-03-21T01:11:10;72498.44;;;-142.70;47.37
6224;BME280;3145;42.726;23.342;2023-03-21T01:13:37;72508.53;;;-142.70;47.57
6224;BME280;3145;42.726;23.342;2023-03-21T01:16:05;72510.53;;;-142.70;47.66
6224;BME280;3145;42.726;23.342;2023-03-21T01:18:35;72508.53;;;-142.70;47.89
6224;BME280;3145;42.726;23.342;2023-03-21T01:21:07;72512.56;;;-142.70;47.97
6224;BME280;3145;42.726;23.342;2023-03-21T01:23:33;72512.56;;;-142.70;47.87
6224;BME280;3145;42.726;23.342;2023-03-21T01:26:00;72520.59;;;-142.70;48.13
6224;BME280;3145;42.726;23.342;2023-03-21T01:28:29;72520.59;;;-142.70;48.04
6224;BME280;3145;42.726;23.342;2023-03-21T01:30:56;72526.66;;;-142.70;48.04
6224;BME280;3145;42.726;23.342;2023-03-21T01:33:23;72532.69;;;-142.70;48.07
6224;BME280;3145;42.726;23.342;2023-03-21T01:35:50;72530.69;;;-142.70;47.97
6224;BME280;3145;42.726;23.342;2023-03-21T01:38:17;72544.78;;;-142.70;48.73
6224;BME280;3145;42.726;23.342;2023-03-21T01:40:44;72552.84;;;-142.70;49.25
6224;BME280;3145;42.726;23.342;2023-03-21T01:43:34;72552.84;;;-142.70;49.32
6224;BME280;3145;42.726;23.342;2023-03-21T01:46:20;72552.84;;;-142.70;49.31
6224;BME280;3145;42.726;23.342;2023-03-21T01:48:52;72554.84;;;-142.70;49.68
6224;BME280;3145;42.726;23.342;2023-03-21T01:51:21;72560.91;;;-142.70;49.78
6224;BME280;3145;42.726;23.342;2023-03-21T01:53:49;72564.94;;;-142.70;50.04
6224;BME280;3145;42.726;23.342;2023-03-21T01:56:21;72556.88;;;-142.70;49.86
6224;BME280;3145;42.726;23.342;2023-03-21T01:58:53;72566.94;;;-142.70;49.84
6224;BME280;3145;42.726;23.342;2023-03-21T02:01:22;72572.97;;;-142.70;49.65
6224;BME280;3145;42.726;23.342;2023-03-21T02:03:49;72577.00;;;-142.70;49.86
6224;BME280;3145;42.726;23.342;2023-03-21T02:06:23;72583.06;;;-142.70;50.04
6224;BME280;3145;42.726;23.342;2023-03-21T02:08:55;72577.00;;;-142.70;49.91
6224;BME280;3145;42.726;23.342;2023-03-21T02:11:22;72581.03;;;-142.70;49.86
6224;BME280;3145;42.726;23.342;2023-03-21T02:13:52;72583.06;;;-142.70;50.28
6224;BME280;3145;42.726;23.342;2023-03-21T02:16:28;72585.06;;;-142.70;49.93
6224;BME280;3145;42.726;23.342;2023-03-21T02:19:06;72585.06;;;-142.70;49.96
6224;BME280;3145;42.726;23.342;2023-03-21T02:21:51;72593.13;;;-142.70;49.75
6224;BME280;3145;42.726;23.342;2023-03-21T02:24:49;72601.19;;;-142.70;50.11
6224;BME280;3145;42.726;23.342;2023-03-21T02:27:21;72609.25;;;-142.70;50.07
6224;BME280;3145;42.726;23.342;2023-03-21T02:30:14;72609.25;;;-142.70;50.35
6224;BME280;3145;42.726;23.342;2023-03-21T02:32:58;72611.25;;;-142.70;50.52
6224;BME280;3145;42.726;23.342;2023-03-21T02:38:33;72625.38;;;-142.70;50.69
6224;BME280;3145;42.726;23.342;2023-03-21T02:41:07;72625.38;;;-142.70;50.61
6224;BME280;3145;42.726;23.342;2023-03-21T02:43:40;72627.38;;;-142.70;50.61
6224;BME280;3145;42.726;23.342;2023-03-21T02:46:13;72633.41;;;-142.70;50.83
6224;BME280;3145;42.726;23.342;2023-03-21T02:48:45;72637.44;;;-142.70;50.71
6224;BME280;3145;42.726;23.342;2023-03-21T02:51:15;72649.53;;;-142.70;51.68
6224;BME280;3145;42.726;23.342;2023-03-21T02:53:49;72651.56;;;-142.70;51.71
6224;BME280;3145;42.726;23.342;2023-03-21T02:56:17;72653.56;;;-142.70;51.45
6224;BME280;3145;42.726;23.342;2023-03-21T02:58:46;72657.59;;;-142.70;51.58
6224;BME280;3145;42.726;23.342;2023-03-21T03:01:13;72663.63;;;-142.70;51.55
6224;BME280;3145;42.726;23.342;2023-03-21T03:03:40;72667.66;;;-142.70;51.56
6224;BME280;3145;42.726;23.342;2023-03-21T03:06:14;72669.69;;;-142.70;51.95
6224;BME280;3145;42.726;23.342;2023-03-21T03:08:53;72681.78;;;-142.70;51.80
6224;BME280;3145;42.726;23.342;2023-03-21T03:11:25;72681.78;;;-142.70;52.07
6224;BME280;3145;42.726;23.342;2023-03-21T03:14:02;72683.78;;;-142.70;52.35
6224;BME280;3145;42.726;23.342;2023-03-21T03:16:38;72689.84;;;-142.70;52.33
6224;BME280;3145;42.726;23.342;2023-03-21T03:19:10;72689.84;;;-142.70;52.88
6224;BME280;3145;42.726;23.342;2023-03-21T03:21:43;72718.03;;;-142.70;53.28
6224;BME280;3145;42.726;23.342;2023-03-21T03:24:16;72720.06;;;-142.70;53.60
6224;BME280;3145;42.726;23.342;2023-03-21T03:26:49;72726.09;;;-142.70;53.38
6224;BME280;3145;42.726;23.342;2023-03-21T03:29:19;72730.13;;;-142.70;53.62
6224;BME280;3145;42.726;23.342;2023-03-21T03:31:52;72730.13;;;-142.70;53.71
6224;BME280;3145;42.726;23.342;2023-03-21T03:34:23;72728.09;;;-142.70;53.51
6224;BME280;3145;42.726;23.342;2023-03-21T03:36:55;72732.13;;;-142.70;53.76
6224;BME280;3145;42.726;23.342;2023-03-21T03:39:29;72734.16;;;-142.70;53.96
6224;BME280;3145;42.726;23.342;2023-03-21T03:42:01;72738.19;;;-142.70;53.89
6224;BME280;3145;42.726;23.342;2023-03-21T03:44:29;72750.28;;;-142.70;54.08
6224;BME280;3145;42.726;23.342;2023-03-21T03:46:59;72746.25;;;-142.70;54.41
6224;BME280;3145;42.726;23.342;2023-03-21T03:49:31;72756.31;;;-142.70;54.29
6224;BME280;3145;42.726;23.342;2023-03-21T03:52:03;72760.34;;;-142.70;54.57
6224;BME280;3145;42.726;23.342;2023-03-21T03:54:37;72762.34;;;-142.70;54.23
6224;BME280;3145;42.726;23.342;2023-03-21T03:57:05;72770.41;;;-142.70;54.20
6224;BME280;3145;42.726;23.342;2023-03-21T03:59:34;72774.44;;;-142.70;54.72
6224;BME280;3145;42.726;23.342;2023-03-21T04:02:01;72774.44;;;-142.70;54.17
6224;BME280;3145;42.726;23.342;2023-03-21T04:04:28;72780.50;;;-142.70;54.89
6224;BME280;3145;42.726;23.342;2023-03-21T04:06:56;72784.53;;;-142.70;55.03
6224;BME280;3145;42.726;23.342;2023-03-21T04:09:23;72790.56;;;-142.70;54.94
6224;BME280;3145;42.726;23.342;2023-03-21T04:11:54;72792.56;;;-142.70;54.80
6224;BME280;3145;42.726;23.342;2023-03-21T04:14:21;72798.63;;;-142.70;55.20
6224;BME280;3145;42.726;23.342;2023-03-21T04:16:48;72802.66;;;-142.70;55.12
6224;BME280;3145;42.726;23.342;2023-03-21T04:19:17;72800.63;;;-142.70;55.54
6224;BME280;3145;42.726;23.342;2023-03-21T04:21:44;72814.75;;;-142.70;56.10
6224;BME280;3145;42.726;23.342;2023-03-21T04:24:12;72826.81;;;-142.70;56.66
6224;BME280;3145;42.726;23.342;2023-03-21T04:26:39;72822.78;;;-142.70;56.48
6224;BME280;3145;42.726;23.342;2023-03-21T04:29:07;72826.81;;;-142.70;57.29
6224;BME280;3145;42.726;23.342;2023-03-21T04:31:34;72830.84;;;-142.70;57.99
6224;BME280;3145;42.726;23.342;2023-03-21T04:34:04;72828.84;;;-142.70;58.91
6224;BME280;3145;42.726;23.342;2023-03-21T04:36:34;72842.94;;;-142.70;59.24
6224;BME280;3145;42.726;23.342;2023-03-21T04:39:04;72842.94;;;-142.70;58.84
6224;BME280;3145;42.726;23.342;2023-03-21T04:41:36;72849.00;;;-142.70;59.20
6224;BME280;3145;42.726;23.342;2023-03-21T04:44:03;72851.00;;;-142.70;59.64
6224;BME280;3145;42.726;23.342;2023-03-21T04:46:32;72842.94;;;-142.70;59.26
6224;BME280;3145;42.726;23.342;2023-03-21T04:48:58;72832.88;;;-142.70;58.85
6224;BME280;3145;42.726;23.342;2023-03-21T04:51:25;72818.75;;;-142.70;58.92
6224;BME280;3145;42.726;23.342;2023-03-21T04:53:52;72802.66;;;-142.70;58.33
6224;BME280;3145;42.726;23.342;2023-03-21T04:56:22;72790.56;;;-142.70;58.74
6224;BME280;3145;42.726;23.342;2023-03-21T04:58:55;72766.38;;;-142.70;58.32
6224;BME280;3145;42.726;23.342;2023-03-21T05:01:22;72744.22;;;-142.70;58.12
6224;BME280;3145;42.726;23.342;2023-03-21T05:03:51;72738.19;;;-142.70;56.62
6224;BME280;3145;42.726;23.342;2023-03-21T05:06:18;72730.13;;;-142.70;58.99
6224;BME280;3145;42.726;23.342;2023-03-21T05:08:44;72718.03;;;-142.70;59.45
6224;BME280;3145;42.726;23.342;2023-03-21T05:11:11;72709.97;;;-142.70;59.83
6224;BME280;3145;42.726;23.342;2023-03-21T05:13:38;72689.84;;;-142.70;60.10
6224;BME280;3145;42.726;23.342;2023-03-21T05:16:07;72685.81;;;-142.70;59.82
6224;BME280;3145;42.726;23.342;2023-03-21T05:18:33;72683.78;;;-142.70;58.48
6224;BME280;3145;42.726;23.342;2023-03-21T05:21:04;72669.69;;;-142.70;58.30
6224;BME280;3145;42.726;23.342;2023-03-21T05:23:34;72673.72;;;-142.70;60.14
6224;BME280;3145;42.726;23.342;2023-03-21T05:26:04;72701.91;;;-142.70;60.08
6224;BME280;3145;42.726;23.342;2023-03-21T05:28:31;72693.84;;;-142.70;59.30
6224;BME280;3145;42.726;23.342;2023-03-21T05:31:00;72681.78;;;-142.70;58.64
6224;BME280;3145;42.726;23.342;2023-03-21T05:33:27;72681.78;;;-142.70;57.01
6224;BME280;3145;42.726;23.342;2023-03-21T05:35:54;72675.72;;;-142.70;56.15
6224;BME280;3145;42.726;23.342;2023-03-21T05:38:22;72659.63;;;-142.70;56.66
6224;BME280;3145;42.726;23.342;2023-03-21T05:40:49;72649.53;;;-142.70;56.00
6224;BME280;3145;42.726;23.342;2023-03-21T05:43:16;72645.50;;;-142.70;56.09
6224;BME280;3145;42.726;23.342;2023-03-21T05:45:43;72625.38;;;-142.70;55.88
6224;BME280;3145;42.726;23.342;2023-03-21T05:48:09;72615.28;;;-142.70;55.52
6224;BME280;3145;42.726;23.342;2023-03-21T05:50:37;72581.03;;;-142.70;55.27
6224;BME280;3145;42.726;23.342;2023-03-21T05:53:04;72554.84;;;-142.70;54.99
6224;BME280;3145;42.726;23.342;2023-03-21T05:55:32;72538.75;;;-142.70;54.39
6224;BME280;3145;42.726;23.342;2023-03-21T05:57:59;72516.56;;;-142.70;53.64
6224;BME280;3145;42.726;23.342;2023-03-21T06:00:26;72504.50;;;-142.70;52.55
6224;BME280;3145;42.726;23.342;2023-03-21T06:02:53;72492.41;;;-142.70;52.90
6224;BME280;3145;42.726;23.342;2023-03-21T06:05:20;72476.28;;;-142.70;52.65
6224;BME280;3145;42.726;23.342;2023-03-21T06:07:47;72452.13;;;-142.70;52.38
6224;BME280;3145;42.726;23.342;2023-03-21T06:10:14;72427.94;;;-142.70;51.97
6224;BME280;3145;42.726;23.342;2023-03-21T06:12:42;72409.81;;;-142.70;50.55
6224;BME280;3145;42.726;23.342;2023-03-21T06:15:09;72423.91;;;-142.70;49.73
6224;BME280;3145;42.726;23.342;2023-03-21T06:17:36;72407.81;;;-142.70;50.76
6224;BME280;3145;42.726;23.342;2023-03-21T06:20:04;72391.69;;;-142.70;49.91
6224;BME280;3145;42.726;23.342;2023-03-21T06:22:33;72387.66;;;-142.70;48.73
6224;BME280;3145;42.726;23.342;2023-03-21T06:25:00;72375.56;;;-142.70;48.85
6224;BME280;3145;42.726;23.342;2023-03-21T06:27:27;72359.44;;;-142.70;48.46
6224;BME280;3145;42.726;23.342;2023-03-21T06:29:55;72351.41;;;-142.70;48.04
6224;BME280;3145;42.726;23.342;2023-03-21T06:32:23;72357.44;;;-142.70;47.74
6224;BME280;3145;42.726;23.342;2023-03-21T06:34:50;72383.63;;;-142.70;47.82
6224;BME280;3145;42.726;23.342;2023-03-21T06:37:17;72383.63;;;-142.70;48.24
6224;BME280;3145;42.726;23.342;2023-03-21T06:39:44;72427.94;;;-142.70;49.07
6224;BME280;3145;42.726;23.342;2023-03-21T06:42:11;72411.81;;;-142.70;48.53
6224;BME280;3145;42.726;23.342;2023-03-21T06:44:38;72393.69;;;-142.70;47.04
6224;BME280;3145;42.726;23.342;2023-03-21T06:47:06;72379.59;;;-142.70;46.24
6224;BME280;3145;42.726;23.342;2023-03-21T06:49:33;72415.84;;;-142.70;45.63
6224;BME280;3145;42.726;23.342;2023-03-21T06:52:00;72446.06;;;-142.70;45.60
6224;BME280;3145;42.726;23.342;2023-03-21T06:54:27;72466.22;;;-142.70;46.24
6224;BME280;3145;42.726;23.342;2023-03-21T06:56:53;72482.34;;;-142.70;47.03
6224;BME280;3145;42.726;23.342;2023-03-21T06:59:21;72492.41;;;-142.70;47.40
6224;BME280;3145;42.726;23.342;2023-03-21T07:01:47;72478.31;;;-142.70;47.73
6224;BME280;3145;42.726;23.342;2023-03-21T07:04:16;72472.25;;;-142.70;48.20
6224;BME280;3145;42.726;23.342;2023-03-21T07:06:42;72472.25;;;-142.70;48.66
6224;BME280;3145;42.726;23.342;2023-03-21T07:09:09;72464.19;;;-142.70;48.30
6224;BME280;3145;42.726;23.342;2023-03-21T07:11:37;72472.25;;;-142.70;48.71
6224;BME280;3145;42.726;23.342;2023-03-21T07:14:03;72492.41;;;-142.70;49.04
6224;BME280;3145;42.726;23.342;2023-03-21T07:16:31;72470.25;;;-142.70;49.10
6224;BME280;3145;42.726;23.342;2023-03-21T07:18:57;72448.09;;;-142.70;48.62
6224;BME280;3145;42.726;23.342;2023-03-21T07:21:26;72436.00;;;-142.70;48.61
6224;BME280;3145;42.726;23.342;2023-03-21T07:23:52;72405.78;;;-142.70;47.67
6224;BME280;3145;42.726;23.342;2023-03-21T07:26:19;72399.75;;;-142.70;47.70
6224;BME280;3145;42.726;23.342;2023-03-21T07:28:47;72379.59;;;-142.70;47.46
6224;BME280;3145;42.726;23.342;2023-03-21T07:31:15;72357.44;;;-142.70;46.76
6224;BME280;3145;42.726;23.342;2023-03-21T07:33:43;72331.25;;;-142.70;46.20
6224;BME280;3145;42.726;23.342;2023-03-21T07:36:14;72315.13;;;-142.70;46.06
6224;BME280;3145;42.726;23.342;2023-03-21T07:38:42;72307.06;;;-142.70;46.49
6224;BME280;3145;42.726;23.342;2023-03-21T07:41:09;72278.88;;;-142.70;45.72
6224;BME280;3145;42.726;23.342;2023-03-21T07:43:36;72299.03;;;-142.70;45.13
6224;BME280;3145;42.726;23.342;2023-03-21T07:46:03;72286.94;;;-142.70;45.55
6224;BME280;3145;42.726;23.342;2023-03-21T07:48:31;72270.81;;;-142.70;45.12
6224;BME280;3145;42.726;23.342;2023-03-21T07:50:57;72254.72;;;-142.70;44.77
6224;BME280;3145;42.726;23.342;2023-03-21T07:53:25;72230.53;;;-142.70;44.85
6224;BME280;3145;42.726;23.342;2023-03-21T07:55:54;72208.38;;;-142.70;44.52
6224;BME280;3145;42.726;23.342;2023-03-21T07:58:21;72198.31;;;-142.70;44.91
6224;BME280;3145;42.726;23.342;2023-03-21T08:00:48;72170.09;;;-142.70;43.77
6224;BME280;3145;42.726;23.342;2023-03-21T08:03:15;72156.00;;;-142.70;43.11
6224;BME280;3145;42.726;23.342;2023-03-21T08:05:42;72145.94;;;-142.70;42.42
6224;BME280;3145;42.726;23.342;2023-03-21T08:08:10;72107.66;;;-142.70;42.76
6224;BME280;3145;42.726;23.342;2023-03-21T08:10:36;72073.41;;;-142.70;41.82
6224;BME280;3145;42.726;23.342;2023-03-21T08:13:05;72057.31;;;-142.70;41.81
6224;BME280;3145;42.726;23.342;2023-03-21T08:15:31;72057.31;;;-142.70;41.95
6224;BME280;3145;42.726;23.342;2023-03-21T08:17:58;72031.13;;;-142.70;41.05
6224;BME280;3145;42.726;23.342;2023-03-21T08:20:25;72029.09;;;-142.70;40.80
6224;BME280;3145;42.726;23.342;2023-03-21T08:22:52;71992.84;;;-142.70;40.62
6224;BME280;3145;42.726;23.342;2023-03-21T08:25:21;71980.75;;;-142.70;40.34
6224;BME280;3145;42.726;23.342;2023-03-21T08:27:49;71956.59;;;-142.70;39.76
6224;BME280;3145;42.726;23.342;2023-03-21T08:30:19;71930.41;;;-142.70;39.29
6224;BME280;3145;42.726;23.342;2023-03-21T08:32:46;71926.38;;;-142.70;39.16
6224;BME280;3145;42.726;23.342;2023-03-21T08:35:15;71920.34;;;-142.70;38.78
6224;BME280;3145;42.726;23.342;2023-03-21T08:37:42;71888.13;;;-142.70;38.60
6224;BME280;3145;42.726;23.342;2023-03-21T08:40:11;71880.06;;;-142.70;38.28
6224;BME280;3145;42.726;23.342;2023-03-21T08:42:39;71859.91;;;-142.70;37.98
6224;BME280;3145;42.726;23.342;2023-03-21T08:45:07;71847.84;;;-142.70;37.11
6224;BME280;3145;42.726;23.342;2023-03-21T08:47:36;71835.75;;;-142.70;37.22
6224;BME280;3145;42.726;23.342;2023-03-21T08:50:05;71831.72;;;-142.70;37.18
6224;BME280;3145;42.726;23.342;2023-03-21T08:52:32;71843.81;;;-142.70;36.97
6224;BME280;3145;42.726;23.342;2023-03-21T08:54:59;71837.75;;;-142.70;37.16
6224;BME280;3145;42.726;23.342;2023-03-21T08:57:27;71837.75;;;-142.70;37.42
6224;BME280;3145;42.726;23.342;2023-03-21T08:59:54;71833.72;;;-142.70;37.22
6224;BME280;3145;42.726;23.342;2023-03-21T09:02:20;71819.63;;;-142.70;37.40
6224;BME280;3145;42.726;23.342;2023-03-21T09:04:49;71815.59;;;-142.70;37.87
6224;BME280;3145;42.726;23.342;2023-03-21T09:07:19;71803.53;;;-142.70;37.67
6224;BME280;3145;42.726;23.342;2023-03-21T09:09:46;71783.38;;;-142.70;37.62
6224;BME280;3145;42.726;23.342;2023-03-21T09:12:16;71777.34;;;-142.70;37.39
6224;BME280;3145;42.726;23.342;2023-03-21T09:14:43;71779.34;;;-142.70;37.00
6224;BME280;3145;42.726;23.342;2023-03-21T09:17:10;71769.28;;;-142.70;36.79
6224;BME280;3145;42.726;23.342;2023-03-21T09:19:37;71753.16;;;-142.70;36.25
6224;BME280;3145;42.726;23.342;2023-03-21T09:22:06;71755.19;;;-142.70;35.63
6224;BME280;3145;42.726;23.342;2023-03-21T09:24:41;71769.28;;;-142.70;35.88
6224;BME280;3145;42.726;23.342;2023-03-21T09:27:10;71763.25;;;-142.70;36.19
6224;BME280;3145;42.726;23.342;2023-03-21T09:29:38;71745.13;;;-142.70;35.77
6224;BME280;3145;42.726;23.342;2023-03-21T09:32:05;71739.06;;;-142.70;35.55
6224;BME280;3145;42.726;23.342;2023-03-21T09:34:32;71727.00;;;-142.70;35.86
6224;BME280;3145;42.726;23.342;2023-03-21T09:37:01;71718.94;;;-142.70;36.09
6224;BME280;3145;42.726;23.342;2023-03-21T09:39:35;71722.97;;;-142.70;35.86
6224;BME280;3145;42.726;23.342;2023-03-21T09:42:12;71783.38;;;-142.70;37.62
6224;BME280;3145;42.726;23.342;2023-03-21T09:44:53;71769.28;;;-142.70;37.45
6224;BME280;3145;42.726;23.342;2023-03-21T09:47:25;71775.31;;;-142.70;37.49
6224;BME280;3145;42.726;23.342;2023-03-21T09:50:02;71807.56;;;-142.70;37.65
6224;BME280;3145;42.726;23.342;2023-03-21T09:52:35;71801.50;;;-142.70;37.90
6224;BME280;3145;42.726;23.342;2023-03-21T09:55:15;71815.59;;;-142.70;37.85
6224;BME280;3145;42.726;23.342;2023-03-21T09:57:46;71811.56;;;-142.70;37.59
6224;BME280;3145;42.726;23.342;2023-03-21T10:00:19;71803.53;;;-142.70;37.78
6224;BME280;3145;42.726;23.342;2023-03-21T10:02:51;71787.41;;;-142.70;37.06
6224;BME280;3145;42.726;23.342;2023-03-21T10:05:20;71769.28;;;-142.70;36.84
6224;BME280;3145;42.726;23.342;2023-03-21T10:07:53;71755.19;;;-142.70;37.53
6224;BME280;3145;42.726;23.342;2023-03-21T10:10:26;71737.06;;;-142.70;36.97
6224;BME280;3145;42.726;23.342;2023-03-21T10:12:55;71735.03;;;-142.70;36.94
6224;BME280;3145;42.726;23.342;2023-03-21T10:15:24;71702.81;;;-142.70;36.15
6224;BME280;3145;42.726;23.342;2023-03-21T10:17:54;71694.75;;;-142.70;36.26
6224;BME280;3145;42.726;23.342;2023-03-21T10:20:24;71702.81;;;-142.70;36.39
6224;BME280;3145;42.726;23.342;2023-03-21T10:22:54;71650.44;;;-142.70;36.26
6224;BME280;3145;42.726;23.342;2023-03-21T10:25:27;71632.31;;;-142.70;35.99
6224;BME280;3145;42.726;23.342;2023-03-21T10:27:55;71596.06;;;-142.70;35.06
6224;BME280;3145;42.726;23.342;2023-03-21T10:30:31;71644.41;;;-142.70;35.17
6224;BME280;3145;42.726;23.342;2023-03-21T10:33:02;71602.13;;;-142.70;36.09
6224;BME280;3145;42.726;23.342;2023-03-21T10:35:31;71521.56;;;-142.70;34.38
6224;BME280;3145;42.726;23.342;2023-03-21T10:38:01;71485.31;;;-142.70;33.68
6224;BME280;3145;42.726;23.342;2023-03-21T10:40:30;71449.06;;;-142.70;33.91
6224;BME280;3145;42.726;23.342;2023-03-21T10:43:15;71380.59;;;-142.70;33.94
6224;BME280;3145;42.726;23.342;2023-03-21T10:45:44;71332.25;;;-142.70;31.73
6224;BME280;3145;42.726;23.342;2023-03-21T10:48:12;71322.19;;;-142.70;31.88
6224;BME280;3145;42.726;23.342;2023-03-21T10:50:39;71310.09;;;-142.70;31.42
6224;BME280;3145;42.726;23.342;2023-03-21T10:53:14;71285.94;;;-142.70;31.68
6224;BME280;3145;42.726;23.342;2023-03-21T10:55:45;71322.19;;;-142.70;31.16
6224;BME280;3145;42.726;23.342;2023-03-21T10:58:15;71374.56;;;-142.70;32.21
6224;BME280;3145;42.726;23.342;2023-03-21T11:00:53;71356.44;;;-142.70;32.31
6224;BME280;3145;42.726;23.342;2023-03-21T11:03:25;71346.34;;;-142.70;31.78
6224;BME280;3145;42.726;23.342;2023-03-21T11:06:00;71289.97;;;-142.70;30.84
6224;BME280;3145;42.726;23.342;2023-03-21T11:08:28;71320.19;;;-142.70;31.20
6224;BME280;3145;42.726;23.342;2023-03-21T11:11:02;71291.97;;;-142.70;31.48
6224;BME280;3145;42.726;23.342;2023-03-21T11:13:33;71320.19;;;-142.70;31.04
6224;BME280;3145;42.726;23.342;2023-03-21T11:16:06;71302.06;;;-142.70;30.75
6224;BME280;3145;42.726;23.342;2023-03-21T11:18:39;71279.91;;;-142.70;30.22
6224;BME280;3145;42.726;23.342;2023-03-21T11:21:08;71352.41;;;-142.70;30.97
6224;BME280;3145;42.726;23.342;2023-03-21T11:23:40;71380.59;;;-142.70;31.44
6224;BME280;3145;42.726;23.342;2023-03-21T11:26:14;71362.47;;;-142.70;31.20
6224;BME280;3145;42.726;23.342;2023-03-21T11:28:42;71354.41;;;-142.70;31.47
6224;BME280;3145;42.726;23.342;2023-03-21T11:31:10;71354.41;;;-142.70;31.50
6224;BME280;3145;42.726;23.342;2023-03-21T11:33:39;71364.47;;;-142.70;31.60
6224;BME280;3145;42.726;23.342;2023-03-21T11:36:26;71360.44;;;-142.70;31.99
6224;BME280;3145;42.726;23.342;2023-03-21T11:39:02;71348.38;;;-142.70;31.61
6224;BME280;3145;42.726;23.342;2023-03-21T11:41:41;71328.22;;;-142.70;31.38
6224;BME280;3145;42.726;23.342;2023-03-21T11:44:24;71287.97;;;-142.70;31.10
6224;BME280;3145;42.726;23.342;2023-03-21T11:46:52;71306.09;;;-142.70;31.46
6224;BME280;3145;42.726;23.342;2023-03-21T11:49:20;71340.31;;;-142.70;31.97
6224;BME280;3145;42.726;23.342;2023-03-21T11:51:55;71358.44;;;-142.70;31.63
6224;BME280;3145;42.726;23.342;2023-03-21T11:54:27;71388.66;;;-142.70;32.03
6224;BME280;3145;42.726;23.342;2023-03-21T11:57:04;71400.72;;;-142.70;32.59
6224;BME280;3145;42.726;23.342;2023-03-21T11:59:38;71400.72;;;-142.70;32.63
6224;BME280;3145;42.726;23.342;2023-03-21T12:02:26;71382.59;;;-142.70;32.60
6224;BME280;3145;42.726;23.342;2023-03-21T12:05:04;71388.66;;;-142.70;32.47
6224;BME280;3145;42.726;23.342;2023-03-21T12:07:47;71394.69;;;-142.70;31.74
6224;BME280;3145;42.726;23.342;2023-03-21T12:10:34;71364.47;;;-142.70;31.52
6224;BME280;3145;42.726;23.342;2023-03-21T12:13:12;71364.47;;;-142.70;31.93
6224;BME280;3145;42.726;23.342;2023-03-21T12:15:49;71368.50;;;-142.70;32.39
6224;BME280;3145;42.726;23.342;2023-03-21T12:18:33;71334.28;;;-142.70;32.54
6224;BME280;3145;42.726;23.342;2023-03-21T12:21:04;71316.16;;;-142.70;30.51
6224;BME280;3145;42.726;23.342;2023-03-21T12:23:48;71324.19;;;-142.70;30.34
6224;BME280;3145;42.726;23.342;2023-03-21T12:26:24;71342.31;;;-142.70;30.76
6224;BME280;3145;42.726;23.342;2023-03-21T12:29:15;71344.34;;;-142.70;31.03
6224;BME280;3145;42.726;23.342;2023-03-21T12:31:56;71370.53;;;-142.70;30.86
6224;BME280;3145;42.726;23.342;2023-03-21T12:34:49;71380.59;;;-142.70;30.81
6224;BME280;3145;42.726;23.342;2023-03-21T12:37:24;71372.53;;;-142.70;31.34
6224;BME280;3145;42.726;23.342;2023-03-21T12:39:54;71392.69;;;-142.70;31.12
6224;BME280;3145;42.726;23.342;2023-03-21T12:42:49;71400.72;;;-142.70;31.05
6224;BME280;3145;42.726;23.342;2023-03-21T12:45:28;71388.66;;;-142.70;31.48
6224;BME280;3145;42.726;23.342;2023-03-21T12:48:02;71388.66;;;-142.70;31.68
6224;BME280;3145;42.726;23.342;2023-03-21T12:50:31;71402.75;;;-142.70;31.66
6224;BME280;3145;42.726;23.342;2023-03-21T12:53:17;71412.81;;;-142.70;31.83
6224;BME280;3145;42.726;23.342;2023-03-21T12:55:50;71366.50;;;-142.70;31.73
6224;BME280;3145;42.726;23.342;2023-03-21T12:58:19;71380.59;;;-142.70;32.00
6224;BME280;3145;42.726;23.342;2023-03-21T13:00:52;71360.44;;;-142.70;31.40
6224;BME280;3145;42.726;23.342;2023-03-21T13:03:22;71364.47;;;-142.70;31.50
6224;BME280;3145;42.726;23.342;2023-03-21T13:05:54;71370.53;;;-142.70;31.47
6224;BME280;3145;42.726;23.342;2023-03-21T13:08:25;71368.50;;;-142.70;31.71
6224;BME280;3145;42.726;23.342;2023-03-21T13:10:54;71362.47;;;-142.70;31.88